Time;durP1;ratioP1;P1;durP2;ratioP2;P2;SDS_P1;SDS_P2;PMS_P1;PMS_P2;Temp;Humidity;BMP_temperature;BMP_pressure;BME280_temperature;BME280_humidity;BME280_pressure;Samples;Min_cycle;Max_cycle;Signal;HPM_P1;HPM_P2
2023/08/17 00:00:39;;;;;;;6.13;3.30;;;15.80;99.90;;;;;;5039848;28;20507;-92
2023/08/17 00:03:05;;;;;;;8.07;3.60;;;15.80;99.90;;;;;;5035561;28;20040;-93
2023/08/17 00:05:32;;;;;;;9.88;3.40;;;15.80;99.90;;;;;;5051064;28;20075;-93
2023/08/17 00:08:01;;;;;;;9.10;3.75;;;15.80;99.90;;;;;;5043864;28;20041;-93
2023/08/17 00:10:27;;;;;;;4.45;3.10;;;15.80;99.90;;;;;;5044405;28;20033;-93
2023/08/17 00:12:52;;;;;;;6.20;3.53;;;15.80;99.90;;;;;;5059762;28;20139;-93
2023/08/17 00:15:18;;;;;;;6.63;3.40;;;15.80;99.90;;;;;;5054801;28;20036;-88
2023/08/17 00:17:44;;;;;;;5.90;3.53;;;15.80;99.90;;;;;;5039449;28;20044;-91
2023/08/17 00:20:10;;;;;;;7.72;3.80;;;15.80;99.90;;;;;;5056145;28;20040;-93
2023/08/17 00:22:36;;;;;;;6.03;3.67;;;15.80;99.90;;;;;;5038787;28;20041;-93
2023/08/17 00:25:04;;;;;;;6.53;3.70;;;15.70;99.90;;;;;;5055282;28;20101;-93
2023/08/17 00:27:32;;;;;;;7.65;3.70;;;15.80;99.90;;;;;;5023288;28;20037;-91
2023/08/17 00:29:58;;;;;;;7.10;3.65;;;15.70;99.90;;;;;;5058136;28;20059;-92
2023/08/17 00:32:23;;;;;;;5.20;3.80;;;15.70;99.90;;;;;;5053761;28;20041;-88
2023/08/17 00:34:49;;;;;;;6.70;3.60;;;15.70;99.90;;;;;;5042401;28;20032;-88
2023/08/17 00:37:15;;;;;;;6.43;4.50;;;15.70;99.90;;;;;;5059942;28;20036;-93
2023/08/17 00:39:40;;;;;;;7.93;4.05;;;15.70;99.90;;;;;;5077319;28;20048;-93
2023/08/17 00:42:07;;;;;;;6.30;3.20;;;15.70;99.90;;;;;;5057640;28;20064;-93
2023/08/17 00:44:33;;;;;;;5.13;3.97;;;15.70;99.90;;;;;;5054821;28;20045;-92
2023/08/17 00:46:59;;;;;;;5.95;3.67;;;15.70;99.90;;;;;;5046487;28;20147;-93
2023/08/17 00:49:25;;;;;;;8.68;4.00;;;15.70;99.90;;;;;;5047469;28;20535;-93
2023/08/17 00:51:51;;;;;;;5.93;3.38;;;15.70;99.90;;;;;;5039278;28;20137;-92
2023/08/17 00:54:24;;;;;;;7.15;3.88;;;15.70;99.90;;;;;;5045669;28;20048;-90
2023/08/17 00:56:56;;;;;;;5.45;3.30;;;15.70;99.90;;;;;;5068199;28;20037;-92
2023/08/17 00:59:26;;;;;;;6.55;3.90;;;15.70;99.90;;;;;;5024393;28;20131;-94
2023/08/17 01:01:52;;;;;;;6.40;3.53;;;15.70;99.90;;;;;;5022265;28;20041;-93
2023/08/17 01:04:17;;;;;;;7.43;4.38;;;15.60;99.90;;;;;;5036261;28;20055;-92
2023/08/17 01:06:43;;;;;;;6.68;3.88;;;15.60;99.90;;;;;;5058702;28;20104;-90
2023/08/17 01:09:09;;;;;;;5.70;3.72;;;15.60;99.90;;;;;;5031436;28;20504;-92
2023/08/17 01:11:44;;;;;;;7.32;4.00;;;15.60;99.90;;;;;;5018509;28;20497;-89
2023/08/17 01:14:17;;;;;;;7.68;3.45;;;15.50;99.90;;;;;;5048639;28;20045;-93
2023/08/17 01:17:11;;;;;;;7.82;3.80;;;15.50;99.90;;;;;;5039046;28;20484;-92
2023/08/17 01:19:38;;;;;;;6.30;3.88;;;15.50;99.90;;;;;;5039465;28;20052;-95
2023/08/17 01:22:05;;;;;;;5.65;3.55;;;15.50;99.90;;;;;;5038835;28;20041;-93
2023/08/17 01:24:32;;;;;;;5.45;3.42;;;15.50;99.90;;;;;;5041628;28;20153;-93
2023/08/17 01:26:58;;;;;;;4.78;3.45;;;15.40;99.90;;;;;;5042738;28;20082;-91
2023/08/17 01:29:24;;;;;;;6.57;3.67;;;15.40;99.90;;;;;;5047140;28;20041;-96
2023/08/17 01:32:06;;;;;;;5.65;3.80;;;15.40;99.90;;;;;;5052082;28;20047;-96
2023/08/17 01:34:47;;;;;;;5.72;3.72;;;15.40;99.90;;;;;;5054503;28;20120;-93
2023/08/17 01:37:18;;;;;;;5.20;3.35;;;15.40;99.90;;;;;;5053511;28;20033;-90
2023/08/17 01:39:46;;;;;;;5.70;3.45;;;15.50;99.90;;;;;;5042955;28;20036;-92
2023/08/17 01:42:13;;;;;;;6.65;3.50;;;15.40;99.90;;;;;;5046252;28;20036;-93
2023/08/17 01:44:39;;;;;;;4.53;3.20;;;15.40;99.90;;;;;;5058520;28;20044;-92
2023/08/17 01:47:05;;;;;;;6.18;3.60;;;15.40;99.90;;;;;;5057743;28;20044;-93
2023/08/17 01:49:31;;;;;;;4.93;3.90;;;15.50;99.90;;;;;;5046061;28;21008;-93
2023/08/17 01:51:57;;;;;;;5.90;3.45;;;15.50;99.90;;;;;;5037248;28;20037;-91
2023/08/17 01:54:23;;;;;;;4.97;3.40;;;15.50;99.90;;;;;;5055019;28;20418;-92
2023/08/17 01:56:49;;;;;;;4.30;3.45;;;15.50;99.90;;;;;;5046203;28;20496;-94
2023/08/17 01:59:15;;;;;;;5.40;3.33;;;15.50;99.90;;;;;;5036879;28;20032;-91
2023/08/17 02:01:43;;;;;;;7.72;3.60;;;15.40;99.90;;;;;;5056884;28;20039;-89
2023/08/17 02:04:09;;;;;;;6.07;3.58;;;15.40;99.90;;;;;;5052425;28;20049;-93
2023/08/17 02:06:35;;;;;;;6.45;4.43;;;15.50;99.90;;;;;;5036252;28;20045;-93
2023/08/17 02:09:01;;;;;;;6.60;3.25;;;15.50;99.90;;;;;;5055644;28;20043;-90
2023/08/17 02:11:27;;;;;;;6.18;3.30;;;15.50;99.90;;;;;;5015861;28;20353;-89
2023/08/17 02:13:52;;;;;;;6.13;3.70;;;15.50;99.90;;;;;;5050164;28;20029;-93
2023/08/17 02:16:18;;;;;;;6.15;3.58;;;15.50;99.90;;;;;;5036255;28;20072;-90
2023/08/17 02:18:44;;;;;;;4.32;3.50;;;15.50;99.90;;;;;;5020229;28;20128;-89
2023/08/17 02:21:09;;;;;;;4.03;3.47;;;15.50;99.90;;;;;;5037453;28;20401;-93
2023/08/17 02:23:35;;;;;;;7.30;3.65;;;15.60;99.90;;;;;;5038368;28;20059;-93
2023/08/17 02:26:01;;;;;;;4.03;3.13;;;15.60;99.90;;;;;;5053800;28;20071;-90
2023/08/17 02:28:27;;;;;;;5.03;3.25;;;15.60;99.90;;;;;;5039864;28;20048;-93
2023/08/17 02:30:57;;;;;;;6.47;3.55;;;15.60;99.90;;;;;;5036545;28;20077;-92
2023/08/17 02:33:23;;;;;;;4.03;3.10;;;15.60;99.90;;;;;;5036560;28;20090;-93
2023/08/17 02:35:52;;;;;;;6.32;3.53;;;15.60;99.90;;;;;;5045313;28;20093;-89
2023/08/17 02:38:18;;;;;;;4.88;3.42;;;15.60;99.90;;;;;;5034500;28;20040;-88
2023/08/17 02:40:44;;;;;;;5.28;3.35;;;15.70;99.90;;;;;;5057339;28;20040;-92
2023/08/17 02:43:09;;;;;;;4.93;3.50;;;15.60;99.90;;;;;;5039284;28;20040;-85
2023/08/17 02:45:35;;;;;;;6.88;3.50;;;15.70;99.90;;;;;;5052836;28;20049;-93
2023/08/17 02:48:01;;;;;;;7.18;3.63;;;15.70;99.90;;;;;;5037478;28;20087;-92
2023/08/17 02:50:27;;;;;;;6.85;3.70;;;15.60;99.90;;;;;;5041134;28;20047;-93
2023/08/17 02:52:53;;;;;;;8.52;4.30;;;15.70;99.90;;;;;;5053539;28;20040;-90
2023/08/17 02:55:19;;;;;;;4.88;4.03;;;15.60;99.90;;;;;;5023145;28;20033;-88
2023/08/17 02:57:45;;;;;;;7.50;3.53;;;15.60;99.90;;;;;;5049784;28;20033;-91
2023/08/17 03:00:11;;;;;;;6.10;3.95;;;15.60;99.90;;;;;;5055863;28;20063;-90
2023/08/17 03:02:37;;;;;;;4.53;3.60;;;15.60;99.90;;;;;;5056948;28;20055;-89
2023/08/17 03:05:03;;;;;;;7.60;4.50;;;15.60;99.90;;;;;;5029898;28;20089;-93
2023/08/17 03:07:29;;;;;;;10.68;4.85;;;15.60;99.90;;;;;;5034123;28;20045;-90
2023/08/17 03:09:54;;;;;;;6.32;4.50;;;15.60;99.90;;;;;;5044749;28;20098;-89
2023/08/17 03:12:20;;;;;;;8.48;4.82;;;15.60;99.90;;;;;;5044207;28;20154;-93
2023/08/17 03:14:46;;;;;;;7.18;4.20;;;15.60;99.90;;;;;;5027226;28;20037;-91
2023/08/17 03:17:12;;;;;;;8.93;4.80;;;15.60;99.90;;;;;;5041217;28;20120;-91
2023/08/17 03:19:38;;;;;;;5.97;4.45;;;15.60;99.90;;;;;;5036413;28;20118;-89
2023/08/17 03:22:03;;;;;;;6.40;4.43;;;15.60;99.90;;;;;;5034784;28;20083;-87
2023/08/17 03:24:29;;;;;;;7.68;4.55;;;15.60;99.90;;;;;;5048766;28;20064;-89
2023/08/17 03:26:55;;;;;;;6.50;4.25;;;15.60;99.90;;;;;;5039280;28;20435;-89
2023/08/17 03:29:21;;;;;;;6.78;4.35;;;15.60;99.90;;;;;;5035527;28;20037;-90
2023/08/17 03:31:46;;;;;;;8.30;4.90;;;15.60;99.90;;;;;;5003468;28;20095;-85
2023/08/17 03:34:12;;;;;;;10.88;5.13;;;15.60;99.90;;;;;;5045950;28;20032;-89
2023/08/17 03:36:38;;;;;;;8.05;4.60;;;15.60;99.90;;;;;;5063494;28;20036;-88
2023/08/17 03:39:04;;;;;;;7.40;4.60;;;15.60;99.90;;;;;;5020881;28;20073;-90
2023/08/17 03:41:30;;;;;;;8.98;4.43;;;15.60;99.90;;;;;;5040178;28;20408;-92
2023/08/17 03:43:56;;;;;;;7.72;4.50;;;15.60;99.90;;;;;;5038432;28;20048;-91
2023/08/17 03:46:21;;;;;;;11.70;5.07;;;15.60;99.90;;;;;;5054926;28;20105;-90
2023/08/17 03:48:47;;;;;;;8.68;4.32;;;15.70;99.90;;;;;;5036590;28;20439;-93
2023/08/17 03:51:13;;;;;;;6.70;4.20;;;15.70;99.90;;;;;;5054116;28;20593;-91
2023/08/17 03:53:39;;;;;;;6.55;4.10;;;15.70;99.90;;;;;;5058439;28;20085;-91
2023/08/17 03:56:04;;;;;;;6.20;3.65;;;15.70;99.90;;;;;;5023374;28;20041;-88
2023/08/17 03:58:34;;;;;;;8.18;4.60;;;15.80;99.90;;;;;;5026195;28;20075;-92
2023/08/17 04:01:00;;;;;;;9.50;4.50;;;15.80;99.90;;;;;;5044954;28;20044;-87
2023/08/17 04:03:25;;;;;;;8.45;4.40;;;15.80;99.90;;;;;;5043960;28;20044;-88
2023/08/17 04:05:51;;;;;;;6.00;4.75;;;15.80;99.90;;;;;;5054798;28;20127;-90
2023/08/17 04:08:17;;;;;;;8.05;4.13;;;15.80;99.90;;;;;;5023367;28;20045;-87
2023/08/17 04:10:43;;;;;;;6.50;3.67;;;15.80;99.90;;;;;;5023918;28;20090;-88
2023/08/17 04:13:08;;;;;;;8.10;4.05;;;15.90;99.90;;;;;;5038324;28;20048;-89
2023/08/17 04:15:34;;;;;;;6.95;3.88;;;15.90;99.90;;;;;;5060931;28;20045;-89
2023/08/17 04:18:00;;;;;;;5.65;3.65;;;15.90;99.90;;;;;;5057580;28;20090;-86
2023/08/17 04:20:26;;;;;;;7.15;3.90;;;15.80;99.90;;;;;;5027049;28;20721;-87
2023/08/17 04:22:51;;;;;;;10.02;4.10;;;15.90;99.90;;;;;;5038617;28;20051;-88
2023/08/17 04:25:17;;;;;;;4.18;3.63;;;15.80;99.90;;;;;;5053466;28;20514;-88
2023/08/17 04:27:43;;;;;;;7.13;3.70;;;15.90;99.90;;;;;;5041692;28;20465;-89
2023/08/17 04:30:10;;;;;;;8.15;3.58;;;15.90;99.90;;;;;;5012027;28;20094;-88
2023/08/17 04:32:35;;;;;;;6.28;3.42;;;15.90;99.90;;;;;;5057362;28;20051;-87
2023/08/17 04:35:01;;;;;;;5.75;3.38;;;15.90;99.90;;;;;;5056223;28;20123;-89
2023/08/17 04:37:27;;;;;;;6.25;3.55;;;15.90;99.90;;;;;;5054880;28;20075;-89
2023/08/17 04:39:52;;;;;;;4.88;3.40;;;15.90;99.90;;;;;;5040914;28;20153;-91
2023/08/17 04:42:19;;;;;;;6.10;3.33;;;15.90;99.90;;;;;;5045875;28;20044;-90
2023/08/17 04:44:46;;;;;;;4.30;3.17;;;15.90;99.90;;;;;;5015673;28;20124;-90
2023/08/17 04:47:11;;;;;;;10.10;3.72;;;15.90;99.90;;;;;;5037229;28;20174;-86
2023/08/17 04:49:37;;;;;;;7.18;3.50;;;15.90;99.90;;;;;;5053873;28;20127;-89
2023/08/17 04:52:03;;;;;;;7.30;3.45;;;15.90;99.90;;;;;;5007442;28;20666;-89
2023/08/17 04:54:29;;;;;;;6.53;3.33;;;15.90;99.90;;;;;;5040887;28;20045;-86
2023/08/17 04:56:55;;;;;;;9.15;3.40;;;15.90;99.90;;;;;;5064471;28;20048;-88
2023/08/17 04:59:21;;;;;;;4.88;3.45;;;15.90;99.90;;;;;;5047555;28;20036;-89
2023/08/17 05:01:46;;;;;;;7.60;3.83;;;15.90;99.90;;;;;;5050502;28;20052;-86
2023/08/17 05:04:12;;;;;;;7.32;3.13;;;15.90;99.90;;;;;;5072643;28;20052;-83
2023/08/17 05:06:38;;;;;;;6.53;3.28;;;15.90;99.90;;;;;;5032788;28;20048;-89
2023/08/17 05:09:04;;;;;;;6.43;3.20;;;15.90;99.90;;;;;;5069528;28;20045;-90
2023/08/17 05:11:31;;;;;;;7.65;3.72;;;15.90;99.90;;;;;;5055382;28;20040;-90
2023/08/17 05:13:56;;;;;;;7.40;3.45;;;15.90;99.90;;;;;;5042894;28;20033;-91
2023/08/17 05:16:22;;;;;;;8.65;3.90;;;15.90;99.90;;;;;;5043557;28;20033;-90
2023/08/17 05:18:48;;;;;;;5.90;3.25;;;15.90;99.90;;;;;;5019742;28;20037;-86
2023/08/17 05:21:13;;;;;;;6.78;3.45;;;15.90;99.90;;;;;;5019944;28;20045;-86
2023/08/17 05:23:39;;;;;;;7.10;3.58;;;15.90;99.90;;;;;;5037204;28;20041;-90
2023/08/17 05:26:05;;;;;;;8.48;3.63;;;15.90;99.90;;;;;;5036521;28;20389;-91
2023/08/17 05:28:31;;;;;;;5.32;3.53;;;15.90;99.90;;;;;;5030059;28;20139;-86
2023/08/17 05:31:02;;;;;;;7.07;3.55;;;15.90;99.90;;;;;;5074268;28;20040;-90
2023/08/17 05:33:28;;;;;;;4.97;3.50;;;16.00;99.90;;;;;;5052229;28;20033;-90
2023/08/17 05:35:54;;;;;;;6.60;3.33;;;16.00;99.90;;;;;;5037594;28;20187;-88
2023/08/17 05:38:20;;;;;;;4.55;3.10;;;16.00;99.90;;;;;;5041352;28;20100;-86
2023/08/17 05:40:46;;;;;;;7.30;3.55;;;16.00;99.90;;;;;;5038285;28;20123;-90
2023/08/17 05:43:12;;;;;;;6.70;3.45;;;16.00;99.90;;;;;;5053575;28;20179;-88
2023/08/17 05:45:37;;;;;;;6.80;3.30;;;16.00;99.90;;;;;;5019553;28;20048;-87
2023/08/17 05:48:03;;;;;;;9.52;3.25;;;16.00;99.90;;;;;;5048790;28;20040;-89
2023/08/17 05:50:30;;;;;;;7.47;3.33;;;16.00;99.90;;;;;;5053898;28;20068;-89
2023/08/17 05:52:56;;;;;;;9.90;3.53;;;16.00;99.90;;;;;;5037456;28;20041;-87
2023/08/17 05:55:22;;;;;;;5.20;3.00;;;16.10;99.90;;;;;;5048730;28;20036;-89
2023/08/17 05:57:47;;;;;;;8.15;3.42;;;16.10;99.90;;;;;;5038688;28;20040;-92
2023/08/17 06:00:15;;;;;;;5.70;3.08;;;16.10;99.90;;;;;;5036129;28;20049;-89
2023/08/17 06:02:49;;;;;;;7.72;2.90;;;16.10;99.90;;;;;;5003673;28;20467;-89
2023/08/17 06:05:15;;;;;;;4.88;2.70;;;16.10;99.90;;;;;;5041282;28;20550;-86
2023/08/17 06:07:41;;;;;;;5.15;3.28;;;16.20;99.90;;;;;;5044730;28;20060;-86
2023/08/17 06:10:07;;;;;;;5.18;2.90;;;16.20;99.90;;;;;;5065041;28;20036;-87
2023/08/17 06:12:33;;;;;;;6.57;2.92;;;16.20;99.90;;;;;;5003949;28;20468;-87
2023/08/17 06:14:58;;;;;;;5.22;2.85;;;16.20;99.90;;;;;;5035887;28;20126;-85
2023/08/17 06:17:24;;;;;;;5.40;2.88;;;16.20;99.90;;;;;;5040183;28;20455;-90
2023/08/17 06:19:50;;;;;;;8.25;2.95;;;16.30;99.90;;;;;;5030790;28;20120;-86
2023/08/17 06:22:16;;;;;;;5.97;3.10;;;16.30;99.90;;;;;;5035818;28;20124;-92
2023/08/17 06:24:41;;;;;;;9.57;3.30;;;16.30;99.90;;;;;;5019699;28;20181;-86
2023/08/17 06:27:07;;;;;;;5.97;2.75;;;16.30;99.90;;;;;;5053737;28;20069;-84
2023/08/17 06:29:33;;;;;;;7.05;2.72;;;16.30;99.90;;;;;;5067555;28;20085;-90
2023/08/17 06:31:58;;;;;;;7.40;2.90;;;16.30;99.90;;;;;;5052062;28;20039;-87
2023/08/17 06:34:24;;;;;;;6.70;2.58;;;16.30;99.90;;;;;;5038820;28;20068;-86
2023/08/17 06:37:02;;;;;;;9.82;2.63;;;16.40;99.90;;;;;;5055541;28;20036;-86
2023/08/17 06:39:28;;;;;;;7.30;3.10;;;16.40;99.90;;;;;;5071548;28;20052;-82
2023/08/17 06:41:54;;;;;;;5.32;2.45;;;16.40;99.90;;;;;;5066931;28;20033;-87
2023/08/17 06:44:20;;;;;;;3.80;2.33;;;16.40;99.90;;;;;;5057273;28;20606;-84
2023/08/17 06:46:46;;;;;;;7.63;2.60;;;16.50;99.90;;;;;;5052089;28;20037;-85
2023/08/17 06:49:12;;;;;;;5.03;2.38;;;16.50;99.90;;;;;;5046606;28;20048;-87
2023/08/17 06:51:39;;;;;;;4.57;2.13;;;16.50;99.90;;;;;;5066968;28;20047;-85
2023/08/17 06:54:07;;;;;;;7.22;2.50;;;16.50;99.90;;;;;;5055654;28;20087;-84
2023/08/17 06:56:33;;;;;;;4.15;2.17;;;16.50;99.90;;;;;;5042243;28;20111;-84
2023/08/17 06:58:59;;;;;;;3.92;2.05;;;16.60;99.90;;;;;;5064009;28;20136;-86
2023/08/17 07:01:24;;;;;;;3.95;2.05;;;16.60;99.90;;;;;;5060661;28;21700;-87
2023/08/17 07:03:50;;;;;;;6.03;2.33;;;16.70;99.90;;;;;;5039964;28;20064;-87
2023/08/17 07:06:16;;;;;;;4.72;2.22;;;16.70;99.90;;;;;;5023020;28;20041;-83
2023/08/17 07:08:41;;;;;;;5.82;2.35;;;16.70;99.90;;;;;;5045758;28;20052;-87
2023/08/17 07:11:08;;;;;;;4.88;1.90;;;16.60;99.90;;;;;;5044884;28;20036;-85
2023/08/17 07:13:34;;;;;;;3.35;2.22;;;16.70;99.90;;;;;;5050867;28;20513;-85
2023/08/17 07:15:59;;;;;;;5.88;2.58;;;16.60;99.90;;;;;;5037339;28;20041;-85
2023/08/17 07:18:25;;;;;;;5.57;2.20;;;16.70;99.90;;;;;;5043871;28;20036;-84
2023/08/17 07:20:51;;;;;;;6.82;2.05;;;16.70;99.90;;;;;;5013760;28;20049;-86
2023/08/17 07:23:16;;;;;;;6.03;2.05;;;16.70;99.90;;;;;;5020464;28;20770;-85
2023/08/17 07:25:42;;;;;;;4.60;2.00;;;16.70;99.90;;;;;;5054177;28;20047;-84
2023/08/17 07:28:08;;;;;;;3.85;2.20;;;16.70;99.90;;;;;;5047681;28;20076;-85
2023/08/17 07:30:33;;;;;;;4.25;2.13;;;16.70;99.90;;;;;;5022722;28;20099;-83
2023/08/17 07:32:59;;;;;;;4.10;1.83;;;16.80;99.90;;;;;;5049252;28;20037;-87
2023/08/17 07:35:25;;;;;;;5.50;1.98;;;16.80;99.90;;;;;;5020228;28;20037;-85
2023/08/17 07:37:51;;;;;;;5.18;1.98;;;16.90;99.90;;;;;;5034879;28;20079;-83
2023/08/17 07:40:16;;;;;;;5.50;2.05;;;16.90;99.90;;;;;;5069826;28;20076;-86
2023/08/17 07:42:42;;;;;;;4.82;1.98;;;17.00;99.90;;;;;;5037698;28;20484;-83
2023/08/17 07:45:08;;;;;;;4.85;1.92;;;17.00;99.90;;;;;;5036969;28;20175;-86
2023/08/17 07:47:38;;;;;;;4.55;2.10;;;17.00;99.90;;;;;;5053704;28;20037;-87
2023/08/17 07:50:05;;;;;;;6.15;4.90;;;17.10;99.90;;;;;;5037154;28;20076;-85
2023/08/17 07:52:30;;;;;;;4.43;1.95;;;17.10;99.90;;;;;;5053748;28;20523;-84
2023/08/17 07:54:56;;;;;;;15.95;2.72;;;17.10;99.90;;;;;;5037489;28;20206;-88
2023/08/17 07:57:22;;;;;;;4.18;1.90;;;17.10;99.90;;;;;;5038075;28;20060;-88
2023/08/17 07:59:51;;;;;;;6.78;1.70;;;17.20;99.90;;;;;;5038254;28;20041;-86
2023/08/17 08:02:17;;;;;;;4.53;2.25;;;17.20;99.90;;;;;;5055433;28;20059;-92
2023/08/17 08:04:43;;;;;;;3.65;1.95;;;17.30;99.90;;;;;;5054375;28;20064;-87
2023/08/17 08:07:09;;;;;;;2.33;1.75;;;17.20;99.90;;;;;;5037489;28;20045;-89
2023/08/17 08:09:35;;;;;;;8.73;2.08;;;17.20;99.90;;;;;;5035333;28;20056;-90
2023/08/17 08:12:02;;;;;;;3.65;1.92;;;17.20;99.90;;;;;;5027116;28;20061;-88
2023/08/17 08:14:28;;;;;;;4.22;2.13;;;17.20;99.90;;;;;;5050178;28;20050;-89
2023/08/17 08:16:53;;;;;;;4.22;1.70;;;17.20;99.90;;;;;;5054894;28;20049;-88
2023/08/17 08:19:19;;;;;;;4.22;1.77;;;17.20;99.90;;;;;;5038605;28;20040;-91
2023/08/17 08:21:45;;;;;;;3.47;1.63;;;17.30;99.90;;;;;;5036186;28;20504;-89
2023/08/17 08:24:10;;;;;;;5.07;1.80;;;17.30;99.90;;;;;;5046692;28;20442;-90
2023/08/17 08:26:36;;;;;;;5.45;2.30;;;17.30;99.90;;;;;;5050891;28;20037;-90
2023/08/17 08:29:02;;;;;;;5.25;2.22;;;17.30;99.90;;;;;;5058148;28;20098;-91
2023/08/17 08:31:28;;;;;;;5.60;2.35;;;17.30;99.90;;;;;;5039943;28;20033;-88
2023/08/17 08:33:54;;;;;;;4.20;2.00;;;17.30;99.90;;;;;;5037440;28;20385;-88
2023/08/17 08:36:20;;;;;;;4.25;1.90;;;17.40;99.90;;;;;;5037639;28;20099;-89
2023/08/17 08:38:48;;;;;;;3.85;1.92;;;17.40;99.90;;;;;;5039701;28;20049;-88
2023/08/17 08:41:14;;;;;;;5.20;2.17;;;17.40;99.90;;;;;;5024999;28;20033;-92
2023/08/17 08:43:40;;;;;;;2.92;1.90;;;17.40;99.90;;;;;;5039999;28;20048;-94
2023/08/17 08:46:06;;;;;;;3.88;1.70;;;17.40;99.90;;;;;;5038272;28;20037;-92
2023/08/17 08:48:32;;;;;;;3.80;2.13;;;17.40;99.90;;;;;;5037596;28;20455;-89
2023/08/17 08:51:00;;;;;;;5.28;2.03;;;17.40;99.90;;;;;;5046501;28;20040;-91
2023/08/17 08:53:43;;;;;;;5.50;2.13;;;17.30;99.90;;;;;;5053972;28;20044;-88
2023/08/17 08:56:12;;;;;;;11.15;3.17;;;17.40;99.90;;;;;;5029660;28;20635;-92
2023/08/17 08:58:39;;;;;;;5.82;2.35;;;17.30;99.90;;;;;;5054867;28;20041;-92
2023/08/17 09:01:07;;;;;;;7.75;2.20;;;17.40;99.90;;;;;;5049538;28;20076;-88
2023/08/17 09:03:34;;;;;;;4.38;2.58;;;17.40;99.90;;;;;;5041229;28;20369;-92
2023/08/17 09:06:00;;;;;;;5.30;2.30;;;17.40;99.90;;;;;;5054763;28;20151;-91
2023/08/17 09:08:30;;;;;;;7.28;2.60;;;17.40;99.90;;;;;;5046607;28;20468;-90
2023/08/17 09:10:56;;;;;;;5.90;2.17;;;17.50;99.90;;;;;;5048933;28;20037;-90
2023/08/17 09:13:22;;;;;;;11.13;3.00;;;17.50;99.90;;;;;;5046965;28;20123;-92
2023/08/17 09:15:48;;;;;;;20.45;18.48;;;17.50;99.90;;;;;;5041230;28;20119;-86
2023/08/17 09:18:16;;;;;;;3.25;2.75;;;17.50;99.90;;;;;;5049662;28;20068;-88
2023/08/17 09:20:46;;;;;;;4.88;2.22;;;17.60;99.90;;;;;;5050029;28;20049;-90
2023/08/17 09:23:16;;;;;;;4.60;2.08;;;17.60;99.90;;;;;;5049637;28;20046;-87
2023/08/17 09:25:44;;;;;;;4.65;2.47;;;17.60;99.90;;;;;;5049378;28;20492;-88
2023/08/17 09:28:14;;;;;;;5.78;2.72;;;17.60;99.90;;;;;;5056763;28;20051;-89
2023/08/17 09:30:57;;;;;;;4.47;2.20;;;17.70;99.90;;;;;;5049563;28;20049;-90
2023/08/17 09:33:24;;;;;;;5.53;2.05;;;17.70;99.90;;;;;;5033975;28;20075;-86
2023/08/17 09:35:51;;;;;;;6.72;2.50;;;17.70;99.90;;;;;;5045763;28;20111;-84
2023/08/17 09:38:18;;;;;;;5.10;2.20;;;17.70;99.90;;;;;;5020413;28;20078;-88
2023/08/17 09:40:44;;;;;;;4.13;2.00;;;17.70;99.90;;;;;;5037399;28;20040;-88
2023/08/17 09:43:10;;;;;;;3.97;2.38;;;17.70;99.90;;;;;;5008493;28;20044;-88
2023/08/17 09:45:40;;;;;;;3.88;2.35;;;17.80;99.90;;;;;;5035061;28;20075;-88
2023/08/17 09:48:08;;;;;;;6.97;2.40;;;17.80;99.90;;;;;;5029069;28;20076;-86
2023/08/17 09:50:34;;;;;;;4.45;2.55;;;17.90;99.90;;;;;;5033609;28;20044;-87
2023/08/17 09:53:00;;;;;;;3.08;2.55;;;18.20;99.90;;;;;;5051927;28;20037;-91
2023/08/17 09:55:26;;;;;;;5.75;2.47;;;18.40;99.90;;;;;;5005944;28;20033;-90
2023/08/17 09:57:53;;;;;;;2.88;2.38;;;18.50;99.90;;;;;;5019377;28;20053;-89
2023/08/17 10:00:19;;;;;;;4.45;2.55;;;18.50;99.90;;;;;;5035975;28;20059;-87
2023/08/17 10:02:50;;;;;;;12.85;4.13;;;18.40;99.90;;;;;;5031985;28;20049;-87
2023/08/17 10:05:18;;;;;;;6.05;2.92;;;18.40;99.90;;;;;;5031510;28;20054;-89
2023/08/17 10:07:51;;;;;;;2.67;2.40;;;18.40;99.90;;;;;;5031518;28;20062;-87
2023/08/17 10:10:22;;;;;;;6.93;3.17;;;18.40;99.90;;;;;;5046837;28;20531;-87
2023/08/17 10:13:09;;;;;;;4.43;2.72;;;18.40;99.90;;;;;;5070357;28;20124;-90
2023/08/17 10:15:38;;;;;;;5.80;2.95;;;18.40;99.90;;;;;;5050157;28;20044;-86
2023/08/17 10:18:12;;;;;;;5.78;3.20;;;18.50;99.90;;;;;;5041276;28;20094;-84
2023/08/17 10:20:45;;;;;;;6.22;3.28;;;18.40;99.90;;;;;;5034748;28;20047;-88
2023/08/17 10:23:16;;;;;;;3.95;2.80;;;18.40;99.90;;;;;;5054539;28;20098;-84
2023/08/17 10:25:43;;;;;;;6.07;2.70;;;18.40;99.90;;;;;;5053000;28;20526;-85
2023/08/17 10:28:12;;;;;;;3.95;2.80;;;18.30;99.90;;;;;;5018409;28;20124;-85
2023/08/17 10:30:39;;;;;;;3.58;2.78;;;18.30;99.90;;;;;;5035077;28;20036;-85
2023/08/17 10:33:06;;;;;;;6.45;2.95;;;18.20;99.90;;;;;;5052543;28;20045;-83
2023/08/17 10:35:33;;;;;;;4.75;3.42;;;18.30;99.90;;;;;;5034524;28;20040;-92
2023/08/17 10:37:59;;;;;;;3.30;3.00;;;18.30;99.90;;;;;;5037632;28;20041;-86
2023/08/17 10:40:34;;;;;;;4.85;2.90;;;18.20;99.90;;;;;;5034631;28;20084;-86
2023/08/17 10:43:00;;;;;;;9.25;3.22;;;18.20;99.90;;;;;;5056336;28;20102;-84
2023/08/17 10:45:31;;;;;;;5.63;3.30;;;18.20;99.90;;;;;;5047282;28;20040;-86
2023/08/17 10:48:27;;;;;;;5.47;3.25;;;18.30;99.90;;;;;;5036834;28;20044;-88
2023/08/17 10:51:01;;;;;;;5.30;3.90;;;18.30;99.90;;;;;;5044158;28;20091;-87
2023/08/17 10:53:34;;;;;;;6.15;3.60;;;18.30;99.90;;;;;;5034634;28;20045;-85
2023/08/17 10:56:00;;;;;;;4.65;3.78;;;18.40;99.90;;;;;;5035356;28;20119;-87
2023/08/17 10:58:26;;;;;;;5.40;3.42;;;18.40;99.90;;;;;;5036922;28;20119;-89
2023/08/17 11:00:58;;;;;;;6.25;3.92;;;18.50;99.90;;;;;;5039791;28;20128;-84
2023/08/17 11:03:24;;;;;;;4.22;3.60;;;18.60;99.90;;;;;;5034218;28;20041;-87
2023/08/17 11:05:58;;;;;;;5.15;3.50;;;18.60;99.90;;;;;;5050774;28;20409;-90
2023/08/17 11:08:38;;;;;;;5.07;4.03;;;18.60;99.90;;;;;;5035958;28;20049;-86
2023/08/17 11:11:12;;;;;;;5.97;3.83;;;18.70;99.90;;;;;;5054211;28;20095;-87
2023/08/17 11:13:43;;;;;;;6.50;4.82;;;18.60;99.90;;;;;;5054664;28;20040;-88
2023/08/17 11:16:11;;;;;;;6.15;4.47;;;18.60;99.90;;;;;;5042202;28;20041;-85
2023/08/17 11:18:37;;;;;;;5.38;4.60;;;18.60;99.90;;;;;;5054640;28;20111;-88
2023/08/17 11:21:04;;;;;;;5.63;4.50;;;18.60;99.90;;;;;;5023759;28;20462;-87
2023/08/17 11:23:32;;;;;;;6.78;4.20;;;18.70;99.90;;;;;;5034532;28;20044;-86
2023/08/17 11:25:58;;;;;;;5.38;4.15;;;18.70;99.90;;;;;;5051061;28;20032;-89
2023/08/17 11:28:24;;;;;;;6.45;4.03;;;18.70;99.90;;;;;;5034320;28;20037;-89
2023/08/17 11:31:04;;;;;;;5.68;4.40;;;18.70;99.90;;;;;;5033336;28;20508;-90
2023/08/17 11:33:31;;;;;;;5.47;4.47;;;18.70;99.90;;;;;;5033955;28;20128;-86
2023/08/17 11:35:58;;;;;;;5.68;4.38;;;18.70;99.90;;;;;;5037645;28;20088;-87
2023/08/17 11:38:25;;;;;;;6.32;4.25;;;18.70;99.90;;;;;;5046406;28;20033;-88
2023/08/17 11:40:52;;;;;;;6.80;4.10;;;18.70;99.90;;;;;;5019043;28;20041;-86
2023/08/17 11:43:20;;;;;;;7.22;4.50;;;18.80;99.90;;;;;;5054989;28;20040;-87
2023/08/17 11:45:46;;;;;;;6.03;4.20;;;18.80;99.90;;;;;;5051039;28;20040;-86
2023/08/17 11:48:12;;;;;;;4.88;4.18;;;18.90;99.90;;;;;;5071976;28;20037;-91
2023/08/17 11:50:41;;;;;;;5.40;4.53;;;18.90;99.90;;;;;;5053693;28;20130;-84
2023/08/17 11:53:07;;;;;;;5.72;4.28;;;19.00;99.90;;;;;;5048845;28;20042;-88
2023/08/17 11:55:32;;;;;;;7.47;4.55;;;19.10;99.90;;;;;;5035687;28;20033;-88
2023/08/17 11:57:58;;;;;;;7.05;4.60;;;19.10;99.90;;;;;;5030773;28;21290;-87
2023/08/17 12:00:25;;;;;;;7.55;4.90;;;19.10;99.90;;;;;;5026505;28;20037;-90
2023/08/17 12:02:52;;;;;;;7.55;5.25;;;19.10;99.90;;;;;;5022236;28;20037;-86
2023/08/17 12:05:27;;;;;;;6.72;4.55;;;19.10;99.90;;;;;;5013984;28;20058;-86
2023/08/17 12:07:53;;;;;;;7.07;5.10;;;19.10;99.90;;;;;;5035046;28;20095;-87
2023/08/17 12:10:19;;;;;;;6.55;5.00;;;19.20;99.90;;;;;;5041676;28;20463;-86
2023/08/17 12:12:47;;;;;;;6.82;4.85;;;19.30;99.90;;;;;;5054103;28;20129;-86
2023/08/17 12:15:15;;;;;;;6.60;4.88;;;19.40;99.90;;;;;;5063578;28;20072;-86
2023/08/17 12:17:47;;;;;;;7.25;5.05;;;19.50;99.90;;;;;;5040234;28;20045;-86
2023/08/17 12:20:20;;;;;;;10.52;4.90;;;19.60;99.90;;;;;;5040343;28;20068;-88
2023/08/17 12:22:47;;;;;;;5.78;4.35;;;19.50;99.90;;;;;;5067293;28;20048;-87
2023/08/17 12:25:13;;;;;;;6.80;4.60;;;19.60;99.90;;;;;;5052642;28;20095;-87
2023/08/17 12:27:40;;;;;;;5.85;5.10;;;19.60;99.90;;;;;;5046357;28;20576;-87
2023/08/17 12:30:13;;;;;;;6.68;4.63;;;19.60;99.90;;;;;;5027320;28;20507;-89
2023/08/17 12:32:38;;;;;;;8.18;4.75;;;19.50;99.90;;;;;;5033556;28;20049;-86
2023/08/17 12:35:04;;;;;;;6.35;4.53;;;19.50;99.90;;;;;;5023305;28;20042;-88
2023/08/17 12:37:30;;;;;;;5.70;4.50;;;19.40;99.90;;;;;;5026434;28;20048;-88
2023/08/17 12:39:56;;;;;;;5.95;4.43;;;19.40;99.90;;;;;;5039783;28;20040;-87
2023/08/17 12:42:22;;;;;;;5.80;4.68;;;19.40;99.90;;;;;;5023269;28;20488;-87
2023/08/17 12:44:48;;;;;;;8.55;4.97;;;19.40;99.90;;;;;;5036739;28;20087;-87